createdAt,value
2018-10-19T00:00:02.743Z,96021.00
2018-10-19T00:00:40.171Z,96022.00
2018-10-19T00:01:17.680Z,96022.00
2018-10-19T00:01:55.188Z,96017.00
2018-10-19T00:02:32.761Z,96019.00
2018-10-19T00:03:10.379Z,96020.00
2018-10-19T00:03:47.724Z,96021.00
2018-10-19T00:04:25.244Z,96023.00
2018-10-19T00:05:02.774Z,96020.00
2018-10-19T00:05:40.222Z,96021.00
2018-10-19T00:06:17.689Z,96022.00
2018-10-19T00:06:55.184Z,96023.00
2018-10-19T00:07:32.659Z,96021.00
2018-10-19T00:08:10.201Z,96022.00
2018-10-19T00:08:47.705Z,96025.00
2018-10-19T00:09:25.233Z,96023.00
2018-10-19T00:10:02.792Z,96023.00
2018-10-19T00:10:40.246Z,96022.00
2018-10-19T00:11:17.646Z,96019.00
2018-10-19T00:11:55.227Z,96024.00
2018-10-19T00:12:32.641Z,96016.00
2018-10-19T00:13:10.037Z,96019.00
2018-10-19T00:13:47.575Z,96024.00
2018-10-19T00:14:25.166Z,96025.00
2018-10-19T00:15:02.790Z,96020.00
2018-10-19T00:15:44.104Z,96019.00
2018-10-19T00:16:21.614Z,96021.00
2018-10-19T00:16:59.089Z,96022.00
2018-10-19T00:17:36.682Z,96018.00
2018-10-19T00:18:14.140Z,96018.00
2018-10-19T00:18:51.713Z,96017.00
2018-10-19T00:19:29.193Z,96019.00
2018-10-19T00:20:06.690Z,96020.00
2018-10-19T00:20:44.135Z,96021.00
2018-10-19T00:21:21.749Z,96022.00
2018-10-19T00:21:59.152Z,96020.00
2018-10-19T00:22:36.722Z,96020.00
2018-10-19T00:23:14.185Z,96018.00
2018-10-19T00:23:51.629Z,96019.00
2018-10-19T00:24:29.185Z,96018.00
2018-10-19T00:25:06.649Z,96019.00
2018-10-19T00:25:44.276Z,96019.00
2018-10-19T00:26:25.870Z,96016.00
2018-10-19T00:27:03.522Z,96015.00
2018-10-19T00:27:40.849Z,96015.00
2018-10-19T00:28:18.277Z,96011.00
2018-10-19T00:28:55.689Z,96015.00
2018-10-19T00:29:33.198Z,96016.00
2018-10-19T00:30:10.754Z,96009.00
2018-10-19T00:30:48.213Z,96010.00
2018-10-19T00:31:25.697Z,96011.00
2018-10-19T00:32:03.125Z,96011.00
2018-10-19T00:32:40.606Z,96010.00
2018-10-19T00:33:18.196Z,96013.00
2018-10-19T00:33:55.848Z,96013.00
2018-10-19T00:34:36.738Z,96009.00
2018-10-19T00:35:14.313Z,96010.00
2018-10-19T00:35:51.708Z,96005.00
2018-10-19T00:36:29.249Z,96005.00
2018-10-19T00:37:06.630Z,95999.00
2018-10-19T00:37:44.015Z,96002.00
2018-10-19T00:38:21.512Z,95997.00
2018-10-19T00:38:59.196Z,96007.00
2018-10-19T00:39:36.661Z,96003.00
2018-10-19T00:40:14.067Z,96004.00
2018-10-19T00:40:51.610Z,96000.00
2018-10-19T00:41:29.003Z,96002.00
2018-10-19T00:42:06.730Z,96002.00
2018-10-19T00:42:44.135Z,96006.00
2018-10-19T00:43:21.686Z,96006.00
2018-10-19T00:43:59.272Z,96003.00
2018-10-19T00:44:36.929Z,96006.00
2018-10-19T00:45:14.285Z,96004.00
2018-10-19T00:45:51.778Z,96005.00
2018-10-19T00:46:29.284Z,96004.00
2018-10-19T00:47:06.932Z,96009.00
2018-10-19T00:47:44.435Z,96006.00
2018-10-19T00:48:21.917Z,96006.00
2018-10-19T00:48:59.370Z,96007.00
2018-10-19T00:49:36.871Z,96005.00
2018-10-19T00:50:14.421Z,96012.00
2018-10-19T00:50:51.930Z,96010.00
2018-10-19T00:51:29.450Z,96012.00
2018-10-19T00:52:06.984Z,96015.00
2018-10-19T00:52:44.513Z,96014.00
2018-10-19T00:53:21.933Z,96012.00
2018-10-19T00:53:59.357Z,96014.00
2018-10-19T00:54:36.888Z,96011.00
2018-10-19T00:55:14.533Z,96009.00
2018-10-19T00:55:51.968Z,96010.00
2018-10-19T00:56:29.595Z,96012.00
2018-10-19T00:57:07.049Z,96014.00
2018-10-19T00:57:44.445Z,96012.00
2018-10-19T00:58:21.893Z,96011.00
2018-10-19T00:58:59.462Z,96013.00
2018-10-19T00:59:36.840Z,96017.00
2018-10-19T01:00:14.367Z,96011.00
2018-10-19T01:00:51.825Z,96010.00
2018-10-19T01:01:29.320Z,96011.00
2018-10-19T01:02:06.850Z,96014.00
2018-10-19T01:02:44.314Z,96011.00
2018-10-19T01:03:21.853Z,96012.00
2018-10-19T01:03:59.370Z,96012.00
2018-10-19T01:04:36.900Z,96011.00
2018-10-19T01:05:14.491Z,96009.00
2018-10-19T01:05:52.050Z,96006.00
2018-10-19T01:06:29.524Z,96009.00
2018-10-19T01:07:07.199Z,96009.00
2018-10-19T01:07:44.718Z,96012.00
2018-10-19T01:08:22.226Z,96008.00
2018-10-19T01:08:59.809Z,96006.00
2018-10-19T01:09:37.270Z,96005.00
2018-10-19T01:10:14.709Z,96008.00
2018-10-19T01:10:52.390Z,96006.00
2018-10-19T01:11:29.766Z,96007.00
2018-10-19T01:12:07.287Z,96005.00
2018-10-19T01:12:44.873Z,96008.00
2018-10-19T01:13:22.564Z,96006.00
2018-10-19T01:14:00.010Z,96005.00
2018-10-19T01:14:37.514Z,96005.00
2018-10-19T01:15:15.047Z,96005.00
2018-10-19T01:15:52.692Z,96006.00
2018-10-19T01:16:30.396Z,96004.00
2018-10-19T01:17:07.909Z,96002.00
2018-10-19T01:17:45.443Z,96001.00
2018-10-19T01:18:22.990Z,96004.00
2018-10-19T01:19:00.469Z,96002.00
2018-10-19T01:19:38.069Z,96001.00
2018-10-19T01:20:15.593Z,96004.00
2018-10-19T01:20:53.102Z,96005.00
2018-10-19T01:21:30.658Z,96002.00
2018-10-19T01:22:08.090Z,96002.00
2018-10-19T01:22:45.561Z,96001.00
2018-10-19T01:23:23.193Z,96002.00
2018-10-19T01:24:00.632Z,96003.00
2018-10-19T01:24:38.120Z,96001.00
2018-10-19T01:25:15.630Z,96003.00
2018-10-19T01:25:53.133Z,96009.00
2018-10-19T01:26:30.707Z,96008.00
2018-10-19T01:27:08.329Z,96010.00
2018-10-19T01:27:45.754Z,96008.00
2018-10-19T01:28:23.230Z,96010.00
2018-10-19T01:29:00.796Z,96006.00
2018-10-19T01:29:38.437Z,96008.00
2018-10-19T01:30:16.035Z,96010.00
2018-10-19T01:30:53.466Z,96010.00
2018-10-19T01:31:30.928Z,96015.00
2018-10-19T01:32:08.309Z,96012.00
2018-10-19T01:32:45.773Z,96017.00
2018-10-19T01:33:23.291Z,96013.00
2018-10-19T01:34:00.862Z,96014.00
2018-10-19T01:34:42.286Z,96016.00
2018-10-19T01:35:19.774Z,96013.00
2018-10-19T01:35:57.312Z,96013.00
2018-10-19T01:36:34.989Z,96012.00
2018-10-19T01:37:12.445Z,96013.00
2018-10-19T01:37:49.982Z,96010.00
2018-10-19T01:38:27.517Z,96012.00
2018-10-19T01:39:05.082Z,96006.00
2018-10-19T01:39:42.628Z,96011.00
2018-10-19T01:40:20.327Z,96010.00
2018-10-19T01:40:57.848Z,96012.00
2018-10-19T01:41:35.295Z,96012.00
2018-10-19T01:42:12.806Z,96009.00
2018-10-19T01:42:50.261Z,96007.00
2018-10-19T01:43:27.717Z,96007.00
2018-10-19T01:44:05.172Z,96010.00
2018-10-19T01:44:42.690Z,96011.00
2018-10-19T01:45:20.194Z,96009.00
2018-10-19T01:45:57.605Z,96009.00
2018-10-19T01:46:35.164Z,96012.00
2018-10-19T01:47:12.731Z,96012.00
2018-10-19T01:47:50.237Z,96010.00
2018-10-19T01:48:27.687Z,96012.00
2018-10-19T01:49:05.296Z,96011.00
2018-10-19T01:49:42.743Z,96014.00
2018-10-19T01:50:20.196Z,96010.00
2018-10-19T01:50:57.912Z,96011.00
2018-10-19T01:51:35.376Z,96007.00
2018-10-19T01:52:12.811Z,96007.00
2018-10-19T01:52:50.203Z,96009.00
2018-10-19T01:53:27.890Z,96008.00
2018-10-19T01:54:05.356Z,96009.00
2018-10-19T01:54:42.811Z,96010.00
2018-10-19T01:55:20.241Z,96009.00
2018-10-19T01:55:57.751Z,96010.00
2018-10-19T01:56:35.428Z,96013.00
2018-10-19T01:57:13.138Z,96011.00
2018-10-19T01:57:50.725Z,96005.00
2018-10-19T01:58:28.305Z,96007.00
2018-10-19T01:59:05.798Z,96011.00
2018-10-19T01:59:43.309Z,96008.00
2018-10-19T02:00:20.809Z,96008.00
2018-10-19T02:00:58.277Z,96006.00
2018-10-19T02:01:35.800Z,96009.00
2018-10-19T02:02:13.355Z,96008.00
2018-10-19T02:02:50.768Z,96003.00
2018-10-19T02:03:28.193Z,96004.00
2018-10-19T02:04:05.705Z,96006.00
2018-10-19T02:04:43.203Z,96004.00
2018-10-19T02:05:20.639Z,96009.00
2018-10-19T02:05:58.190Z,96007.00
2018-10-19T02:06:35.598Z,96007.00
2018-10-19T02:07:13.069Z,96005.00
2018-10-19T02:07:50.585Z,96008.00
2018-10-19T02:08:28.145Z,96008.00
2018-10-19T02:09:05.847Z,96011.00
2018-10-19T02:09:43.266Z,96007.00
2018-10-19T02:10:20.981Z,96007.00
2018-10-19T02:10:58.274Z,96002.00
2018-10-19T02:11:35.855Z,96007.00
2018-10-19T02:12:13.309Z,96008.00
2018-10-19T02:12:50.832Z,96007.00
2018-10-19T02:13:28.397Z,96009.00
2018-10-19T02:14:05.961Z,96011.00
2018-10-19T02:14:43.539Z,96007.00
2018-10-19T02:15:21.027Z,96010.00
2018-10-19T02:15:58.441Z,96008.00
2018-10-19T02:16:35.990Z,96007.00
2018-10-19T02:17:13.484Z,96010.00
2018-10-19T02:17:50.813Z,96011.00
2018-10-19T02:18:28.424Z,96011.00
2018-10-19T02:19:05.881Z,96010.00
2018-10-19T02:19:43.483Z,96010.00
2018-10-19T02:20:20.992Z,96009.00
2018-10-19T02:20:58.539Z,96015.00
2018-10-19T02:21:36.099Z,96008.00
2018-10-19T02:22:13.628Z,96007.00
2018-10-19T02:22:51.086Z,96010.00
2018-10-19T02:23:28.554Z,96011.00
2018-10-19T02:24:06.168Z,96010.00
2018-10-19T02:24:43.833Z,96011.00
2018-10-19T02:25:21.491Z,96012.00
2018-10-19T02:25:59.104Z,96013.00
2018-10-19T02:26:36.534Z,96009.00
2018-10-19T02:27:14.021Z,96010.00
2018-10-19T02:27:51.473Z,96009.00
2018-10-19T02:28:29.029Z,96012.00
2018-10-19T02:29:06.718Z,96013.00
2018-10-19T02:29:44.198Z,96015.00
2018-10-19T02:30:21.744Z,96014.00
2018-10-19T02:30:59.205Z,96014.00
2018-10-19T02:31:36.875Z,96013.00
2018-10-19T02:32:14.198Z,96014.00
2018-10-19T02:32:51.807Z,96011.00
2018-10-19T02:33:29.232Z,96017.00
2018-10-19T02:34:06.757Z,96015.00
2018-10-19T02:35:27.058Z,96015.00
2018-10-19T02:36:04.691Z,96013.00
2018-10-19T02:36:42.213Z,96014.00
2018-10-19T02:37:19.849Z,96016.00
2018-10-19T02:37:57.366Z,96012.00
2018-10-19T02:38:34.785Z,96014.00
2018-10-19T02:39:12.449Z,96013.00
2018-10-19T02:39:53.527Z,96016.00
2018-10-19T02:40:31.059Z,96014.00
2018-10-19T02:41:08.627Z,96009.00
2018-10-19T02:41:46.339Z,96007.00
2018-10-19T02:42:23.798Z,96009.00
2018-10-19T02:43:01.367Z,96013.00
2018-10-19T02:43:38.853Z,96009.00
2018-10-19T02:44:16.253Z,96009.00
2018-10-19T02:45:33.230Z,96008.00
2018-10-19T02:46:10.609Z,96011.00
2018-10-19T02:46:48.233Z,96013.00
2018-10-19T02:47:25.666Z,96010.00
2018-10-19T02:48:03.194Z,96012.00
2018-10-19T02:48:40.824Z,96016.00
2018-10-19T02:49:18.402Z,96011.00
2018-10-19T02:49:55.810Z,96019.00
2018-10-19T02:50:33.337Z,96007.00
2018-10-19T02:51:10.925Z,96006.00
2018-10-19T02:51:48.310Z,96008.00
2018-10-19T02:52:25.870Z,96011.00
2018-10-19T02:53:03.480Z,96004.00
2018-10-19T02:53:41.183Z,96001.00
2018-10-19T02:54:18.673Z,96007.00
2018-10-19T02:54:56.064Z,96003.00
2018-10-19T02:55:37.304Z,96002.00
2018-10-19T02:56:14.920Z,96005.00
2018-10-19T02:56:52.582Z,96001.00
2018-10-19T02:57:29.982Z,96006.00
2018-10-19T02:58:07.485Z,96004.00
2018-10-19T02:58:45.030Z,96002.00
2018-10-19T02:59:22.429Z,96001.00
2018-10-19T02:59:59.838Z,96002.00
2018-10-19T03:00:37.399Z,96003.00
2018-10-19T03:01:14.895Z,96001.00
2018-10-19T03:01:52.485Z,96002.00
2018-10-19T03:02:29.965Z,96002.00
2018-10-19T03:03:07.511Z,96005.00
2018-10-19T03:04:28.738Z,96001.00
2018-10-19T03:05:06.315Z,96001.00
2018-10-19T03:05:43.857Z,96005.00
2018-10-19T03:06:21.415Z,96003.00
2018-10-19T03:06:58.782Z,96000.00
2018-10-19T03:07:36.155Z,96004.00
2018-10-19T03:08:13.541Z,96002.00
2018-10-19T03:08:51.082Z,96008.00
2018-10-19T03:09:31.838Z,96003.00
2018-10-19T03:10:09.297Z,96007.00
2018-10-19T03:10:46.847Z,96003.00
2018-10-19T03:11:24.496Z,96008.00
2018-10-19T03:12:02.064Z,96004.00
2018-10-19T03:12:39.515Z,96006.00
2018-10-19T03:13:17.149Z,96009.00
2018-10-19T03:13:54.708Z,96005.00
2018-10-19T03:14:32.149Z,96008.00
2018-10-19T03:15:09.738Z,96008.00
2018-10-19T03:15:47.104Z,96008.00
2018-10-19T03:16:24.763Z,96007.00
2018-10-19T03:17:02.357Z,96007.00
2018-10-19T03:17:39.720Z,96011.00
2018-10-19T03:18:17.266Z,96010.00
2018-10-19T03:18:54.750Z,96005.00
2018-10-19T03:19:32.193Z,96004.00
2018-10-19T03:20:09.703Z,96006.00
2018-10-19T03:20:47.108Z,96006.00
2018-10-19T03:21:24.587Z,96005.00
2018-10-19T03:22:02.130Z,96010.00
2018-10-19T03:22:39.661Z,96010.00
2018-10-19T03:23:17.162Z,96014.00
2018-10-19T03:23:54.550Z,96014.00
2018-10-19T03:24:32.076Z,96014.00
2018-10-19T03:25:09.476Z,96010.00
2018-10-19T03:25:47.190Z,96014.00
2018-10-19T03:26:24.653Z,96014.00
2018-10-19T03:27:02.151Z,96013.00
2018-10-19T03:27:39.500Z,96015.00
2018-10-19T03:28:17.090Z,96013.00
2018-10-19T03:28:54.662Z,96011.00
2018-10-19T03:29:32.151Z,96012.00
2018-10-19T03:30:09.697Z,96018.00
2018-10-19T03:30:47.330Z,96014.00
2018-10-19T03:31:24.743Z,96010.00
2018-10-19T03:32:02.374Z,96014.00
2018-10-19T03:32:39.877Z,96010.00
2018-10-19T03:33:17.568Z,96017.00
2018-10-19T03:33:54.989Z,96014.00
2018-10-19T03:34:32.409Z,96012.00
2018-10-19T03:35:09.949Z,96015.00
2018-10-19T03:35:47.638Z,96015.00
2018-10-19T03:36:25.226Z,96011.00
2018-10-19T03:37:02.662Z,96010.00
2018-10-19T03:37:40.041Z,96014.00
2018-10-19T03:38:17.605Z,96012.00
2018-10-19T03:38:55.130Z,96011.00
2018-10-19T03:39:32.692Z,96012.00
2018-10-19T03:40:10.103Z,96011.00
2018-10-19T03:40:47.696Z,96014.00
2018-10-19T03:41:25.104Z,96015.00
2018-10-19T03:42:02.621Z,96018.00
2018-10-19T03:42:40.129Z,96018.00
2018-10-19T03:43:17.551Z,96013.00
2018-10-19T03:43:55.132Z,96018.00
2018-10-19T03:44:32.651Z,96017.00
2018-10-19T03:45:10.271Z,96019.00
2018-10-19T03:45:47.842Z,96014.00
2018-10-19T03:46:25.234Z,96016.00
2018-10-19T03:47:02.728Z,96019.00
2018-10-19T03:47:40.347Z,96022.00
2018-10-19T03:48:17.860Z,96017.00
2018-10-19T03:48:55.344Z,96014.00
2018-10-19T03:49:32.774Z,96017.00
2018-10-19T03:50:10.257Z,96012.00
2018-10-19T03:50:47.929Z,96016.00
2018-10-19T03:51:25.465Z,96016.00
2018-10-19T03:52:02.953Z,96015.00
2018-10-19T03:52:40.544Z,96015.00
2018-10-19T03:53:18.148Z,96014.00
2018-10-19T03:53:55.761Z,96013.00
2018-10-19T03:54:33.463Z,96016.00
2018-10-19T03:55:10.961Z,96016.00
2018-10-19T03:55:48.491Z,96019.00
2018-10-19T03:56:26.020Z,96022.00
2018-10-19T03:57:03.579Z,96019.00
2018-10-19T03:57:41.094Z,96020.00
2018-10-19T03:58:18.631Z,96020.00
2018-10-19T03:58:56.235Z,96019.00
2018-10-19T03:59:33.682Z,96016.00
2018-10-19T04:00:11.079Z,96018.00
2018-10-19T04:00:48.614Z,96020.00
2018-10-19T04:01:26.151Z,96018.00
2018-10-19T04:02:03.716Z,96015.00
2018-10-19T04:02:41.114Z,96014.00
2018-10-19T04:03:18.813Z,96020.00
2018-10-19T04:03:56.163Z,96019.00
2018-10-19T04:04:33.613Z,96022.00
2018-10-19T04:05:11.256Z,96019.00
2018-10-19T04:05:48.723Z,96014.00
2018-10-19T04:06:26.247Z,96017.00
2018-10-19T04:07:03.787Z,96015.00
2018-10-19T04:07:41.297Z,96015.00
2018-10-19T04:08:18.819Z,96011.00
2018-10-19T04:08:56.286Z,96019.00
2018-10-19T04:09:33.804Z,96016.00
2018-10-19T04:10:11.258Z,96021.00
2018-10-19T04:10:48.714Z,96015.00
2018-10-19T04:11:26.249Z,96015.00
2018-10-19T04:12:03.843Z,96016.00
2018-10-19T04:12:41.431Z,96018.00
2018-10-19T04:13:18.955Z,96014.00
2018-10-19T04:13:56.347Z,96017.00
2018-10-19T04:14:37.674Z,96017.00
2018-10-19T04:15:15.244Z,96013.00
2018-10-19T04:15:52.517Z,96019.00
2018-10-19T04:16:30.001Z,96018.00
2018-10-19T04:17:07.682Z,96018.00
2018-10-19T04:17:45.130Z,96020.00
2018-10-19T04:18:22.560Z,96020.00
2018-10-19T04:19:00.216Z,96020.00
2018-10-19T04:19:37.615Z,96022.00
2018-10-19T04:20:15.087Z,96024.00
2018-10-19T04:20:52.565Z,96025.00
2018-10-19T04:21:30.221Z,96021.00
2018-10-19T04:22:07.626Z,96026.00
2018-10-19T04:22:45.155Z,96025.00
2018-10-19T04:23:22.638Z,96026.00
2018-10-19T04:24:00.234Z,96026.00
2018-10-19T04:24:37.682Z,96025.00
2018-10-19T04:25:15.170Z,96019.00
2018-10-19T04:25:52.695Z,96028.00
2018-10-19T04:26:30.264Z,96027.00
2018-10-19T04:27:07.771Z,96029.00
2018-10-19T04:27:45.300Z,96026.00
2018-10-19T04:28:22.702Z,96026.00
2018-10-19T04:29:00.116Z,96031.00
2018-10-19T04:29:37.620Z,96030.00
2018-10-19T04:30:15.108Z,96025.00
2018-10-19T04:30:52.646Z,96025.00
2018-10-19T04:31:30.129Z,96028.00
2018-10-19T04:32:07.677Z,96031.00
2018-10-19T04:32:45.255Z,96028.00
2018-10-19T04:33:22.666Z,96024.00
2018-10-19T04:34:00.194Z,96031.00
2018-10-19T04:34:37.852Z,96027.00
2018-10-19T04:35:15.393Z,96025.00
2018-10-19T04:35:52.706Z,96028.00
2018-10-19T04:36:30.078Z,96025.00
2018-10-19T04:37:07.520Z,96027.00
2018-10-19T04:37:44.991Z,96020.00
2018-10-19T04:38:22.525Z,96025.00
2018-10-19T04:39:00.025Z,96024.00
2018-10-19T04:39:37.426Z,96029.00
2018-10-19T04:40:14.880Z,96026.00
2018-10-19T04:41:35.883Z,96022.00
2018-10-19T04:42:13.289Z,96018.00
2018-10-19T04:42:50.764Z,96022.00
2018-10-19T04:43:28.165Z,96024.00
2018-10-19T04:44:05.608Z,96020.00
2018-10-19T04:44:43.110Z,96021.00
2018-10-19T04:45:20.538Z,96019.00
2018-10-19T04:46:41.234Z,96019.00
2018-10-19T04:47:18.760Z,96018.00
2018-10-19T04:47:56.275Z,96020.00
2018-10-19T04:48:33.689Z,96021.00
2018-10-19T04:49:11.225Z,96023.00
2018-10-19T04:49:48.752Z,96025.00
2018-10-19T04:50:26.342Z,96022.00
2018-10-19T04:51:03.886Z,96021.00
2018-10-19T04:51:41.411Z,96028.00
2018-10-19T04:52:18.854Z,96027.00
2018-10-19T04:52:56.464Z,96027.00
2018-10-19T04:53:33.984Z,96031.00
2018-10-19T04:54:11.341Z,96029.00
2018-10-19T04:54:48.987Z,96020.00
2018-10-19T04:55:26.562Z,96025.00
2018-10-19T04:56:04.181Z,96022.00
2018-10-19T04:56:41.649Z,96027.00
2018-10-19T04:57:19.294Z,96025.00
2018-10-19T04:57:56.822Z,96031.00
2018-10-19T04:58:34.370Z,96028.00
2018-10-19T04:59:11.895Z,96026.00
2018-10-19T04:59:49.382Z,96029.00
2018-10-19T05:00:26.928Z,96029.00
2018-10-19T05:01:47.003Z,96029.00
2018-10-19T05:02:24.384Z,96030.00
2018-10-19T05:03:01.843Z,96032.00
2018-10-19T05:03:39.306Z,96029.00
2018-10-19T05:04:16.767Z,96030.00
2018-10-19T05:04:54.376Z,96035.00
2018-10-19T05:05:31.873Z,96030.00
2018-10-19T05:06:09.393Z,96035.00
2018-10-19T05:06:46.860Z,96035.00
2018-10-19T05:07:24.362Z,96038.00
2018-10-19T05:08:01.827Z,96040.00
2018-10-19T05:08:39.273Z,96042.00
2018-10-19T05:09:16.710Z,96039.00
2018-10-19T05:09:54.293Z,96043.00
2018-10-19T05:10:31.979Z,96043.00
2018-10-19T05:11:09.583Z,96041.00
2018-10-19T05:11:47.055Z,96046.00
2018-10-19T05:12:24.441Z,96043.00
2018-10-19T05:13:02.163Z,96049.00
2018-10-19T05:13:39.886Z,96048.00
2018-10-19T05:14:17.392Z,96054.00
2018-10-19T05:14:54.974Z,96052.00
2018-10-19T05:15:32.443Z,96054.00
2018-10-19T05:16:09.998Z,96054.00
2018-10-19T05:16:47.593Z,96053.00
2018-10-19T05:17:25.018Z,96056.00
2018-10-19T05:18:02.501Z,96054.00
2018-10-19T05:18:39.881Z,96056.00
2018-10-19T05:19:17.436Z,96055.00
2018-10-19T05:19:54.931Z,96057.00
2018-10-19T05:20:32.488Z,96057.00
2018-10-19T05:21:09.939Z,96057.00
2018-10-19T05:21:47.493Z,96064.00
2018-10-19T05:22:25.069Z,96059.00
2018-10-19T05:23:02.481Z,96063.00
2018-10-19T05:23:40.025Z,96064.00
2018-10-19T05:24:17.672Z,96063.00
2018-10-19T05:24:55.315Z,96064.00
2018-10-19T05:25:32.718Z,96064.00
2018-10-19T05:26:10.308Z,96064.00
2018-10-19T05:26:47.817Z,96067.00
2018-10-19T05:27:25.357Z,96069.00
2018-10-19T05:28:02.915Z,96067.00
2018-10-19T05:28:40.338Z,96065.00
2018-10-19T05:29:17.977Z,96071.00
2018-10-19T05:29:55.465Z,96071.00
2018-10-19T05:30:33.001Z,96064.00
2018-10-19T05:31:10.393Z,96067.00
2018-10-19T05:31:47.951Z,96065.00
2018-10-19T05:32:25.500Z,96066.00
2018-10-19T05:33:03.057Z,96066.00
2018-10-19T05:33:40.609Z,96072.00
2018-10-19T05:34:17.957Z,96072.00
2018-10-19T05:34:55.444Z,96068.00
2018-10-19T05:35:32.828Z,96072.00
2018-10-19T05:36:10.406Z,96071.00
2018-10-19T05:36:47.885Z,96071.00
2018-10-19T05:37:25.397Z,96070.00
2018-10-19T05:38:02.975Z,96071.00
2018-10-19T05:38:40.508Z,96071.00
2018-10-19T05:39:17.892Z,96072.00
2018-10-19T05:39:55.325Z,96072.00
2018-10-19T05:40:32.850Z,96073.00
2018-10-19T05:41:10.572Z,96080.00
2018-10-19T05:41:48.236Z,96078.00
2018-10-19T05:42:25.660Z,96081.00
2018-10-19T05:43:03.281Z,96082.00
2018-10-19T05:43:40.931Z,96075.00
2018-10-19T05:44:18.462Z,96078.00
2018-10-19T05:44:55.966Z,96081.00
2018-10-19T05:45:33.521Z,96084.00
2018-10-19T05:46:10.956Z,96084.00
2018-10-19T05:46:48.520Z,96082.00
2018-10-19T05:47:26.135Z,96084.00
2018-10-19T05:48:03.664Z,96088.00
2018-10-19T05:48:41.150Z,96088.00
2018-10-19T05:49:18.757Z,96090.00
2018-10-19T05:49:56.237Z,96094.00
2018-10-19T05:50:33.611Z,96088.00
2018-10-19T05:51:11.195Z,96087.00
2018-10-19T05:51:48.776Z,96090.00
2018-10-19T05:52:26.187Z,96089.00
2018-10-19T05:53:03.703Z,96094.00
2018-10-19T05:53:41.280Z,96087.00
2018-10-19T05:54:18.727Z,96090.00
2018-10-19T05:54:56.160Z,96092.00
2018-10-19T05:55:33.584Z,96092.00
2018-10-19T05:56:11.113Z,96095.00
2018-10-19T05:56:48.666Z,96095.00
2018-10-19T05:57:26.149Z,96096.00
2018-10-19T05:58:03.512Z,96103.00
2018-10-19T05:58:40.980Z,96103.00
2018-10-19T05:59:18.483Z,96098.00
2018-10-19T05:59:55.867Z,96100.00
2018-10-19T06:00:33.307Z,96101.00
2018-10-19T06:01:14.465Z,96101.00
2018-10-19T06:01:51.947Z,96097.00
2018-10-19T06:02:29.587Z,96102.00
2018-10-19T06:03:06.945Z,96102.00
2018-10-19T06:03:44.521Z,96103.00
2018-10-19T06:04:22.180Z,96106.00
2018-10-19T06:04:59.702Z,96108.00
2018-10-19T06:05:37.125Z,96102.00
2018-10-19T06:06:58.186Z,96107.00
2018-10-19T06:07:35.623Z,96105.00
2018-10-19T06:08:13.151Z,96108.00
2018-10-19T06:08:50.592Z,96105.00
2018-10-19T06:09:28.151Z,96110.00
2018-10-19T06:10:05.718Z,96114.00
2018-10-19T06:10:43.221Z,96110.00
2018-10-19T06:11:20.743Z,96116.00
2018-10-19T06:11:58.245Z,96114.00
2018-10-19T06:12:35.834Z,96113.00
2018-10-19T06:13:13.410Z,96114.00
2018-10-19T06:13:50.884Z,96114.00
2018-10-19T06:14:28.303Z,96118.00
2018-10-19T06:15:05.719Z,96118.00
2018-10-19T06:15:43.269Z,96122.00
2018-10-19T06:16:20.762Z,96121.00
2018-10-19T06:16:58.373Z,96120.00
2018-10-19T06:17:39.165Z,96116.00
2018-10-19T06:18:16.634Z,96123.00
2018-10-19T06:18:54.205Z,96119.00
2018-10-19T06:19:31.710Z,96119.00
2018-10-19T06:20:09.288Z,96119.00
2018-10-19T06:20:46.753Z,96117.00
2018-10-19T06:21:24.336Z,96119.00
2018-10-19T06:22:01.761Z,96119.00
2018-10-19T06:22:43.369Z,96122.00
2018-10-19T06:23:20.955Z,96124.00
2018-10-19T06:23:58.403Z,96122.00
2018-10-19T06:24:35.834Z,96122.00
2018-10-19T06:25:13.474Z,96118.00
2018-10-19T06:25:50.974Z,96125.00
2018-10-19T06:26:28.529Z,96118.00
2018-10-19T06:27:06.047Z,96119.00
2018-10-19T06:27:43.523Z,96120.00
2018-10-19T06:28:21.091Z,96118.00
2018-10-19T06:28:58.549Z,96124.00
2018-10-19T06:29:36.057Z,96120.00
2018-10-19T06:30:13.611Z,96121.00
2018-10-19T06:30:51.266Z,96120.00
2018-10-19T06:31:28.745Z,96117.00
2018-10-19T06:32:06.127Z,96120.00
2018-10-19T06:32:43.553Z,96124.00
2018-10-19T06:33:21.175Z,96120.00
2018-10-19T06:33:58.665Z,96120.00
2018-10-19T06:34:36.097Z,96124.00
2018-10-19T06:35:56.401Z,96125.00
2018-10-19T06:36:33.862Z,96124.00
2018-10-19T06:37:11.253Z,96127.00
2018-10-19T06:37:48.845Z,96125.00
2018-10-19T06:38:26.262Z,96126.00
2018-10-19T06:39:03.773Z,96124.00
2018-10-19T06:39:41.331Z,96125.00
2018-10-19T06:40:18.753Z,96124.00
2018-10-19T06:40:56.321Z,96128.00
2018-10-19T06:41:33.718Z,96128.00
2018-10-19T06:42:11.327Z,96125.00
2018-10-19T06:42:48.764Z,96125.00
2018-10-19T06:43:26.268Z,96127.00
2018-10-19T06:44:03.916Z,96131.00
2018-10-19T06:44:41.426Z,96132.00
2018-10-19T06:45:18.990Z,96131.00
2018-10-19T06:45:56.645Z,96130.00
2018-10-19T06:46:34.115Z,96132.00
2018-10-19T06:47:11.734Z,96130.00
2018-10-19T06:47:49.234Z,96134.00
2018-10-19T06:48:26.769Z,96130.00
2018-10-19T06:49:04.366Z,96133.00
2018-10-19T06:49:41.999Z,96138.00
2018-10-19T06:50:19.536Z,96130.00
2018-10-19T06:50:57.006Z,96137.00
2018-10-19T06:51:34.470Z,96139.00
2018-10-19T06:52:11.932Z,96134.00
2018-10-19T06:52:49.471Z,96135.00
2018-10-19T06:53:27.083Z,96138.00
2018-10-19T06:54:04.810Z,96136.00
2018-10-19T06:54:42.248Z,96137.00
2018-10-19T06:55:19.716Z,96137.00
2018-10-19T06:55:57.223Z,96136.00
2018-10-19T06:56:34.597Z,96135.00
2018-10-19T06:57:12.165Z,96138.00
2018-10-19T06:57:49.642Z,96133.00
2018-10-19T06:58:27.051Z,96136.00
2018-10-19T06:59:04.691Z,96138.00
2018-10-19T06:59:42.161Z,96139.00
2018-10-19T07:00:19.632Z,96141.00
2018-10-19T07:00:57.247Z,96141.00
2018-10-19T07:01:34.792Z,96142.00
2018-10-19T07:02:12.353Z,96147.00
2018-10-19T07:02:49.837Z,96145.00
2018-10-19T07:03:27.367Z,96148.00
2018-10-19T07:04:04.898Z,96145.00
2018-10-19T07:04:42.374Z,96153.00
2018-10-19T07:05:19.682Z,96150.00
2018-10-19T07:05:57.309Z,96152.00
2018-10-19T07:06:34.907Z,96154.00
2018-10-19T07:07:12.298Z,96152.00
2018-10-19T07:07:49.900Z,96152.00
2018-10-19T07:08:27.346Z,96151.00
2018-10-19T07:09:04.809Z,96155.00
2018-10-19T07:09:42.368Z,96155.00
2018-10-19T07:10:19.837Z,96155.00
2018-10-19T07:10:57.322Z,96155.00
2018-10-19T07:11:34.862Z,96155.00
2018-10-19T07:12:12.387Z,96161.00
2018-10-19T07:12:49.980Z,96157.00
2018-10-19T07:13:27.378Z,96159.00
2018-10-19T07:14:05.010Z,96161.00
2018-10-19T07:14:42.458Z,96160.00
2018-10-19T07:15:19.987Z,96160.00
2018-10-19T07:15:57.591Z,96163.00
2018-10-19T07:16:35.218Z,96161.00
2018-10-19T07:17:12.687Z,96158.00
2018-10-19T07:17:50.168Z,96163.00
2018-10-19T07:18:27.612Z,96161.00
2018-10-19T07:19:05.323Z,96163.00
2018-10-19T07:19:42.713Z,96163.00
2018-10-19T07:20:20.282Z,96163.00
2018-10-19T07:20:57.837Z,96167.00
2018-10-19T07:21:35.377Z,96165.00
2018-10-19T07:22:12.863Z,96163.00
2018-10-19T07:22:50.410Z,96168.00
2018-10-19T07:23:27.954Z,96169.00
2018-10-19T07:24:05.396Z,96166.00
2018-10-19T07:24:43.096Z,96166.00
2018-10-19T07:25:20.617Z,96167.00
2018-10-19T07:25:58.161Z,96168.00
2018-10-19T07:26:35.608Z,96166.00